sensor_id;sensor_type;location;lat;lon;timestamp;P1;durP1;ratioP1;P2;durP2;ratioP2
34196;SDS011;36594;45.192;5.722;2023-03-23T00:01:12;0.30;;;0.30;;
34196;SDS011;36594;45.192;5.722;2023-03-23T00:04:03;0.28;;;0.28;;
34196;SDS011;36594;45.192;5.722;2023-03-23T00:06:52;0.20;;;0.20;;
34196;SDS011;36594;45.192;5.722;2023-03-23T00:09:40;0.25;;;0.25;;
34196;SDS011;36594;45.192;5.722;2023-03-23T00:12:30;0.40;;;0.40;;
34196;SDS011;36594;45.192;5.722;2023-03-23T00:15:22;0.50;;;0.50;;
34196;SDS011;36594;45.192;5.722;2023-03-23T00:18:11;0.40;;;0.40;;
34196;SDS011;36594;45.192;5.722;2023-03-23T00:21:01;0.37;;;0.37;;
34196;SDS011;36594;45.192;5.722;2023-03-23T00:23:56;0.45;;;0.35;;
34196;SDS011;36594;45.192;5.722;2023-03-23T00:26:40;0.30;;;0.30;;
34196;SDS011;36594;45.192;5.722;2023-03-23T00:29:29;0.30;;;0.30;;
34196;SDS011;36594;45.192;5.722;2023-03-23T00:32:20;0.40;;;0.40;;
34196;SDS011;36594;45.192;5.722;2023-03-23T00:35:12;0.20;;;0.20;;
34196;SDS011;36594;45.192;5.722;2023-03-23T00:38:01;0.37;;;0.37;;
34196;SDS011;36594;45.192;5.722;2023-03-23T00:40:51;0.35;;;0.35;;
34196;SDS011;36594;45.192;5.722;2023-03-23T00:43:41;0.45;;;0.45;;
34196;SDS011;36594;45.192;5.722;2023-03-23T00:46:29;0.37;;;0.37;;
34196;SDS011;36594;45.192;5.722;2023-03-23T00:49:19;0.33;;;0.33;;
34196;SDS011;36594;45.192;5.722;2023-03-23T00:52:09;0.42;;;0.42;;
34196;SDS011;36594;45.192;5.722;2023-03-23T00:54:58;0.20;;;0.20;;
34196;SDS011;36594;45.192;5.722;2023-03-23T00:57:46;0.25;;;0.25;;
34196;SDS011;36594;45.192;5.722;2023-03-23T01:00:37;0.40;;;0.40;;
34196;SDS011;36594;45.192;5.722;2023-03-23T01:03:27;0.33;;;0.33;;
34196;SDS011;36594;45.192;5.722;2023-03-23T01:06:18;0.20;;;0.20;;
34196;SDS011;36594;45.192;5.722;2023-03-23T01:09:09;0.40;;;0.40;;
34196;SDS011;36594;45.192;5.722;2023-03-23T01:12:03;0.30;;;0.30;;
34196;SDS011;36594;45.192;5.722;2023-03-23T01:14:52;0.40;;;0.40;;
34196;SDS011;36594;45.192;5.722;2023-03-23T01:17:41;0.25;;;0.25;;
34196;SDS011;36594;45.192;5.722;2023-03-23T01:20:31;0.60;;;0.50;;
34196;SDS011;36594;45.192;5.722;2023-03-23T01:23:20;0.68;;;0.40;;
34196;SDS011;36594;45.192;5.722;2023-03-23T01:26:09;0.40;;;0.40;;
34196;SDS011;36594;45.192;5.722;2023-03-23T01:29:03;0.40;;;0.35;;
34196;SDS011;36594;45.192;5.722;2023-03-23T01:31:51;0.40;;;0.30;;
34196;SDS011;36594;45.192;5.722;2023-03-23T01:34:39;0.50;;;0.50;;
34196;SDS011;36594;45.192;5.722;2023-03-23T01:37:28;0.37;;;0.37;;
34196;SDS011;36594;45.192;5.722;2023-03-23T01:40:20;0.30;;;0.30;;
34196;SDS011;36594;45.192;5.722;2023-03-23T01:43:15;1.60;;;0.40;;
34196;SDS011;36594;45.192;5.722;2023-03-23T01:46:02;0.98;;;0.30;;
34196;SDS011;36594;45.192;5.722;2023-03-23T01:48:51;0.50;;;0.50;;
34196;SDS011;36594;45.192;5.722;2023-03-23T01:51:40;0.30;;;0.30;;
34196;SDS011;36594;45.192;5.722;2023-03-23T01:54:37;0.30;;;0.30;;
34196;SDS011;36594;45.192;5.722;2023-03-23T01:57:28;0.40;;;0.40;;
34196;SDS011;36594;45.192;5.722;2023-03-23T02:00:20;0.30;;;0.30;;
34196;SDS011;36594;45.192;5.722;2023-03-23T02:03:10;1.50;;;0.40;;
34196;SDS011;36594;45.192;5.722;2023-03-23T02:06:02;0.40;;;0.40;;
34196;SDS011;36594;45.192;5.722;2023-03-23T02:09:01;0.35;;;0.35;;
34196;SDS011;36594;45.192;5.722;2023-03-23T02:11:51;0.30;;;0.30;;
34196;SDS011;36594;45.192;5.722;2023-03-23T02:14:41;0.40;;;0.40;;
34196;SDS011;36594;45.192;5.722;2023-03-23T02:17:31;0.30;;;0.30;;
34196;SDS011;36594;45.192;5.722;2023-03-23T02:20:33;0.40;;;0.40;;
34196;SDS011;36594;45.192;5.722;2023-03-23T02:23:35;0.50;;;0.40;;
34196;SDS011;36594;45.192;5.722;2023-03-23T02:29:53;0.30;;;0.30;;
34196;SDS011;36594;45.192;5.722;2023-03-23T02:35:44;0.30;;;0.30;;
34196;SDS011;36594;45.192;5.722;2023-03-23T02:38:54;0.50;;;0.45;;
34196;SDS011;36594;45.192;5.722;2023-03-23T02:41:44;0.40;;;0.40;;
34196;SDS011;36594;45.192;5.722;2023-03-23T02:44:34;0.20;;;0.20;;
34196;SDS011;36594;45.192;5.722;2023-03-23T02:47:25;0.30;;;0.30;;
34196;SDS011;36594;45.192;5.722;2023-03-23T02:50:19;0.40;;;0.30;;
34196;SDS011;36594;45.192;5.722;2023-03-23T02:53:10;1.40;;;0.30;;
34196;SDS011;36594;45.192;5.722;2023-03-23T02:56:01;0.42;;;0.42;;
34196;SDS011;36594;45.192;5.722;2023-03-23T02:58:51;0.30;;;0.30;;
34196;SDS011;36594;45.192;5.722;2023-03-23T03:04:31;1.00;;;0.40;;
34196;SDS011;36594;45.192;5.722;2023-03-23T03:07:30;0.50;;;0.50;;
34196;SDS011;36594;45.192;5.722;2023-03-23T03:10:31;0.50;;;0.50;;
34196;SDS011;36594;45.192;5.722;2023-03-23T03:13:25;0.20;;;0.20;;
34196;SDS011;36594;45.192;5.722;2023-03-23T03:19:24;0.50;;;0.50;;
34196;SDS011;36594;45.192;5.722;2023-03-23T03:22:14;0.30;;;0.30;;
34196;SDS011;36594;45.192;5.722;2023-03-23T03:25:05;0.70;;;0.50;;
34196;SDS011;36594;45.192;5.722;2023-03-23T03:27:56;0.23;;;0.23;;
34196;SDS011;36594;45.192;5.722;2023-03-23T03:31:00;0.40;;;0.40;;
34196;SDS011;36594;45.192;5.722;2023-03-23T03:33:50;0.40;;;0.40;;
34196;SDS011;36594;45.192;5.722;2023-03-23T03:36:39;0.37;;;0.37;;
34196;SDS011;36594;45.192;5.722;2023-03-23T03:39:29;0.42;;;0.42;;
34196;SDS011;36594;45.192;5.722;2023-03-23T03:42:20;0.20;;;0.20;;
34196;SDS011;36594;45.192;5.722;2023-03-23T03:45:11;0.40;;;0.40;;
34196;SDS011;36594;45.192;5.722;2023-03-23T03:48:02;1.00;;;0.40;;
34196;SDS011;36594;45.192;5.722;2023-03-23T03:50:51;0.35;;;0.35;;
34196;SDS011;36594;45.192;5.722;2023-03-23T03:53:41;1.50;;;0.40;;
34196;SDS011;36594;45.192;5.722;2023-03-23T03:56:30;0.70;;;0.70;;
34196;SDS011;36594;45.192;5.722;2023-03-23T03:59:25;0.37;;;0.37;;
34196;SDS011;36594;45.192;5.722;2023-03-23T04:02:17;0.55;;;0.55;;
34196;SDS011;36594;45.192;5.722;2023-03-23T04:05:08;0.20;;;0.20;;
34196;SDS011;36594;45.192;5.722;2023-03-23T04:07:58;0.40;;;0.40;;
34196;SDS011;36594;45.192;5.722;2023-03-23T04:10:50;0.40;;;0.40;;
34196;SDS011;36594;45.192;5.722;2023-03-23T04:13:39;0.60;;;0.60;;
34196;SDS011;36594;45.192;5.722;2023-03-23T04:16:35;0.25;;;0.25;;
34196;SDS011;36594;45.192;5.722;2023-03-23T04:19:24;0.33;;;0.33;;
34196;SDS011;36594;45.192;5.722;2023-03-23T04:22:15;0.40;;;0.40;;
34196;SDS011;36594;45.192;5.722;2023-03-23T04:25:04;0.40;;;0.40;;
34196;SDS011;36594;45.192;5.722;2023-03-23T04:27:55;0.40;;;0.40;;
34196;SDS011;36594;45.192;5.722;2023-03-23T04:30:46;0.30;;;0.30;;
34196;SDS011;36594;45.192;5.722;2023-03-23T04:33:35;0.33;;;0.33;;
34196;SDS011;36594;45.192;5.722;2023-03-23T04:36:24;0.40;;;0.40;;
34196;SDS011;36594;45.192;5.722;2023-03-23T04:39:14;0.43;;;0.43;;
34196;SDS011;36594;45.192;5.722;2023-03-23T04:42:03;0.40;;;0.40;;
34196;SDS011;36594;45.192;5.722;2023-03-23T04:45:09;0.20;;;0.20;;
34196;SDS011;36594;45.192;5.722;2023-03-23T04:47:59;0.50;;;0.50;;
34196;SDS011;36594;45.192;5.722;2023-03-23T04:50:51;0.35;;;0.35;;
34196;SDS011;36594;45.192;5.722;2023-03-23T04:53:42;0.40;;;0.40;;
34196;SDS011;36594;45.192;5.722;2023-03-23T04:56:31;0.30;;;0.30;;
34196;SDS011;36594;45.192;5.722;2023-03-23T04:59:20;0.40;;;0.40;;
34196;SDS011;36594;45.192;5.722;2023-03-23T05:02:13;0.40;;;0.40;;
34196;SDS011;36594;45.192;5.722;2023-03-23T05:05:05;0.50;;;0.50;;
34196;SDS011;36594;45.192;5.722;2023-03-23T05:07:55;0.57;;;0.57;;
34196;SDS011;36594;45.192;5.722;2023-03-23T05:10:57;0.57;;;0.57;;
34196;SDS011;36594;45.192;5.722;2023-03-23T05:13:44;0.40;;;0.40;;
34196;SDS011;36594;45.192;5.722;2023-03-23T05:16:33;0.40;;;0.40;;
34196;SDS011;36594;45.192;5.722;2023-03-23T05:19:23;0.40;;;0.40;;
34196;SDS011;36594;45.192;5.722;2023-03-23T05:22:13;0.65;;;0.57;;
34196;SDS011;36594;45.192;5.722;2023-03-23T05:25:04;0.30;;;0.30;;
34196;SDS011;36594;45.192;5.722;2023-03-23T05:27:57;0.30;;;0.30;;
34196;SDS011;36594;45.192;5.722;2023-03-23T05:30:51;0.30;;;0.30;;
34196;SDS011;36594;45.192;5.722;2023-03-23T05:33:40;0.37;;;0.37;;
34196;SDS011;36594;45.192;5.722;2023-03-23T05:36:31;0.40;;;0.40;;
34196;SDS011;36594;45.192;5.722;2023-03-23T05:39:21;0.47;;;0.47;;
34196;SDS011;36594;45.192;5.722;2023-03-23T05:42:29;0.40;;;0.40;;
34196;SDS011;36594;45.192;5.722;2023-03-23T05:45:20;0.60;;;0.47;;
34196;SDS011;36594;45.192;5.722;2023-03-23T05:48:10;0.40;;;0.40;;
34196;SDS011;36594;45.192;5.722;2023-03-23T05:50:59;0.30;;;0.30;;
34196;SDS011;36594;45.192;5.722;2023-03-23T05:53:47;0.47;;;0.47;;
34196;SDS011;36594;45.192;5.722;2023-03-23T05:56:37;0.57;;;0.57;;
34196;SDS011;36594;45.192;5.722;2023-03-23T05:59:27;1.30;;;0.47;;
34196;SDS011;36594;45.192;5.722;2023-03-23T06:02:16;0.50;;;0.50;;
34196;SDS011;36594;45.192;5.722;2023-03-23T06:05:05;0.40;;;0.40;;
34196;SDS011;36594;45.192;5.722;2023-03-23T06:07:54;0.40;;;0.40;;
34196;SDS011;36594;45.192;5.722;2023-03-23T06:10:43;0.40;;;0.40;;
34196;SDS011;36594;45.192;5.722;2023-03-23T06:13:33;0.45;;;0.45;;
34196;SDS011;36594;45.192;5.722;2023-03-23T06:16:23;0.35;;;0.35;;
34196;SDS011;36594;45.192;5.722;2023-03-23T06:19:16;0.50;;;0.50;;
34196;SDS011;36594;45.192;5.722;2023-03-23T06:22:12;0.50;;;0.50;;
34196;SDS011;36594;45.192;5.722;2023-03-23T06:25:04;0.60;;;0.60;;
34196;SDS011;36594;45.192;5.722;2023-03-23T06:27:55;0.50;;;0.50;;
34196;SDS011;36594;45.192;5.722;2023-03-23T06:30:44;0.53;;;0.53;;
34196;SDS011;36594;45.192;5.722;2023-03-23T06:33:33;0.57;;;0.57;;
34196;SDS011;36594;45.192;5.722;2023-03-23T06:36:27;0.68;;;0.65;;
34196;SDS011;36594;45.192;5.722;2023-03-23T06:39:18;0.50;;;0.50;;
34196;SDS011;36594;45.192;5.722;2023-03-23T06:42:11;0.50;;;0.50;;
34196;SDS011;36594;45.192;5.722;2023-03-23T06:45:02;0.80;;;0.50;;
34196;SDS011;36594;45.192;5.722;2023-03-23T06:47:52;0.75;;;0.75;;
34196;SDS011;36594;45.192;5.722;2023-03-23T06:50:44;0.95;;;0.57;;
34196;SDS011;36594;45.192;5.722;2023-03-23T06:53:35;0.50;;;0.50;;
34196;SDS011;36594;45.192;5.722;2023-03-23T06:56:24;0.80;;;0.60;;
34196;SDS011;36594;45.192;5.722;2023-03-23T06:59:13;0.50;;;0.50;;
34196;SDS011;36594;45.192;5.722;2023-03-23T07:02:03;1.00;;;0.60;;
34196;SDS011;36594;45.192;5.722;2023-03-23T07:04:52;0.50;;;0.50;;
34196;SDS011;36594;45.192;5.722;2023-03-23T07:07:42;0.60;;;0.60;;
34196;SDS011;36594;45.192;5.722;2023-03-23T07:10:32;0.50;;;0.50;;
34196;SDS011;36594;45.192;5.722;2023-03-23T07:13:22;0.40;;;0.40;;
34196;SDS011;36594;45.192;5.722;2023-03-23T07:16:13;0.40;;;0.40;;
34196;SDS011;36594;45.192;5.722;2023-03-23T07:19:01;1.20;;;0.57;;
34196;SDS011;36594;45.192;5.722;2023-03-23T07:21:50;0.50;;;0.50;;
34196;SDS011;36594;45.192;5.722;2023-03-23T07:24:40;1.77;;;0.50;;
34196;SDS011;36594;45.192;5.722;2023-03-23T07:27:30;0.50;;;0.50;;
34196;SDS011;36594;45.192;5.722;2023-03-23T07:30:20;1.80;;;0.50;;
34196;SDS011;36594;45.192;5.722;2023-03-23T07:33:08;0.53;;;0.53;;
34196;SDS011;36594;45.192;5.722;2023-03-23T07:36:01;0.47;;;0.47;;
34196;SDS011;36594;45.192;5.722;2023-03-23T07:38:49;9.25;;;0.75;;
34196;SDS011;36594;45.192;5.722;2023-03-23T07:41:38;1.20;;;0.60;;
34196;SDS011;36594;45.192;5.722;2023-03-23T07:44:28;0.50;;;0.50;;
34196;SDS011;36594;45.192;5.722;2023-03-23T07:47:17;0.50;;;0.50;;
34196;SDS011;36594;45.192;5.722;2023-03-23T07:50:07;0.50;;;0.50;;
34196;SDS011;36594;45.192;5.722;2023-03-23T07:52:59;0.70;;;0.60;;
34196;SDS011;36594;45.192;5.722;2023-03-23T07:55:49;0.50;;;0.50;;
34196;SDS011;36594;45.192;5.722;2023-03-23T07:58:43;0.50;;;0.50;;
34196;SDS011;36594;45.192;5.722;2023-03-23T08:01:32;0.50;;;0.40;;
34196;SDS011;36594;45.192;5.722;2023-03-23T08:04:25;0.40;;;0.40;;
34196;SDS011;36594;45.192;5.722;2023-03-23T08:07:30;0.80;;;0.50;;
34196;SDS011;36594;45.192;5.722;2023-03-23T08:10:29;0.60;;;0.60;;
34196;SDS011;36594;45.192;5.722;2023-03-23T08:13:20;0.40;;;0.40;;
34196;SDS011;36594;45.192;5.722;2023-03-23T08:16:10;0.40;;;0.40;;
34196;SDS011;36594;45.192;5.722;2023-03-23T08:19:04;0.40;;;0.40;;
34196;SDS011;36594;45.192;5.722;2023-03-23T08:22:08;2.43;;;0.73;;
34196;SDS011;36594;45.192;5.722;2023-03-23T08:24:58;0.40;;;0.40;;
34196;SDS011;36594;45.192;5.722;2023-03-23T08:27:58;1.00;;;0.93;;
34196;SDS011;36594;45.192;5.722;2023-03-23T08:30:50;0.60;;;0.50;;
34196;SDS011;36594;45.192;5.722;2023-03-23T08:33:49;0.53;;;0.53;;
34196;SDS011;36594;45.192;5.722;2023-03-23T08:36:39;0.50;;;0.50;;
34196;SDS011;36594;45.192;5.722;2023-03-23T08:39:34;0.55;;;0.55;;
34196;SDS011;36594;45.192;5.722;2023-03-23T08:42:25;0.50;;;0.50;;
34196;SDS011;36594;45.192;5.722;2023-03-23T08:45:20;0.73;;;0.40;;
34196;SDS011;36594;45.192;5.722;2023-03-23T08:48:11;0.33;;;0.33;;
34196;SDS011;36594;45.192;5.722;2023-03-23T08:51:10;0.35;;;0.35;;
34196;SDS011;36594;45.192;5.722;2023-03-23T08:54:17;0.60;;;0.60;;
34196;SDS011;36594;45.192;5.722;2023-03-23T08:57:22;0.70;;;0.60;;
34196;SDS011;36594;45.192;5.722;2023-03-23T09:00:17;1.10;;;0.70;;
34196;SDS011;36594;45.192;5.722;2023-03-23T09:03:25;0.40;;;0.40;;
34196;SDS011;36594;45.192;5.722;2023-03-23T09:06:19;0.70;;;0.40;;
34196;SDS011;36594;45.192;5.722;2023-03-23T09:09:08;0.60;;;0.60;;
34196;SDS011;36594;45.192;5.722;2023-03-23T09:11:57;0.50;;;0.50;;
34196;SDS011;36594;45.192;5.722;2023-03-23T09:14:46;0.50;;;0.50;;
34196;SDS011;36594;45.192;5.722;2023-03-23T09:17:35;0.50;;;0.50;;
34196;SDS011;36594;45.192;5.722;2023-03-23T09:20:25;0.45;;;0.45;;
34196;SDS011;36594;45.192;5.722;2023-03-23T09:23:15;0.60;;;0.60;;
34196;SDS011;36594;45.192;5.722;2023-03-23T09:26:04;0.72;;;0.72;;
34196;SDS011;36594;45.192;5.722;2023-03-23T09:28:53;0.50;;;0.50;;
34196;SDS011;36594;45.192;5.722;2023-03-23T09:31:43;0.62;;;0.62;;
34196;SDS011;36594;45.192;5.722;2023-03-23T09:34:33;1.12;;;0.70;;
34196;SDS011;36594;45.192;5.722;2023-03-23T09:37:23;0.70;;;0.70;;
34196;SDS011;36594;45.192;5.722;2023-03-23T09:40:13;0.88;;;0.72;;
34196;SDS011;36594;45.192;5.722;2023-03-23T09:43:07;0.70;;;0.70;;
34196;SDS011;36594;45.192;5.722;2023-03-23T09:49:30;0.80;;;0.60;;
34196;SDS011;36594;45.192;5.722;2023-03-23T09:52:16;0.60;;;0.60;;
34196;SDS011;36594;45.192;5.722;2023-03-23T09:55:07;0.72;;;0.72;;
34196;SDS011;36594;45.192;5.722;2023-03-23T09:58:02;0.68;;;0.68;;
34196;SDS011;36594;45.192;5.722;2023-03-23T10:00:56;0.80;;;0.80;;
34196;SDS011;36594;45.192;5.722;2023-03-23T10:03:59;0.68;;;0.68;;
34196;SDS011;36594;45.192;5.722;2023-03-23T10:06:49;0.80;;;0.80;;
34196;SDS011;36594;45.192;5.722;2023-03-23T10:09:38;1.50;;;0.78;;
34196;SDS011;36594;45.192;5.722;2023-03-23T10:12:33;0.95;;;0.80;;
34196;SDS011;36594;45.192;5.722;2023-03-23T10:15:24;0.70;;;0.70;;
34196;SDS011;36594;45.192;5.722;2023-03-23T10:18:29;0.80;;;0.80;;
34196;SDS011;36594;45.192;5.722;2023-03-23T10:21:27;0.80;;;0.80;;
34196;SDS011;36594;45.192;5.722;2023-03-23T10:24:26;0.82;;;0.82;;
34196;SDS011;36594;45.192;5.722;2023-03-23T10:30:19;0.82;;;0.82;;
34196;SDS011;36594;45.192;5.722;2023-03-23T10:33:21;0.82;;;0.82;;
34196;SDS011;36594;45.192;5.722;2023-03-23T10:36:08;1.05;;;1.05;;
34196;SDS011;36594;45.192;5.722;2023-03-23T10:42:01;1.32;;;1.22;;
34196;SDS011;36594;45.192;5.722;2023-03-23T10:44:51;1.25;;;1.20;;
34196;SDS011;36594;45.192;5.722;2023-03-23T10:47:41;1.55;;;1.45;;
34196;SDS011;36594;45.192;5.722;2023-03-23T10:50:32;1.75;;;1.35;;
34196;SDS011;36594;45.192;5.722;2023-03-23T10:53:24;1.30;;;1.30;;
34196;SDS011;36594;45.192;5.722;2023-03-23T10:56:22;1.70;;;1.32;;
34196;SDS011;36594;45.192;5.722;2023-03-23T10:59:18;1.77;;;1.40;;
34196;SDS011;36594;45.192;5.722;2023-03-23T11:02:14;1.22;;;1.20;;
34196;SDS011;36594;45.192;5.722;2023-03-23T11:05:07;1.30;;;1.30;;
34196;SDS011;36594;45.192;5.722;2023-03-23T11:07:56;1.55;;;1.45;;
34196;SDS011;36594;45.192;5.722;2023-03-23T11:10:50;1.80;;;1.37;;
34196;SDS011;36594;45.192;5.722;2023-03-23T11:13:43;1.40;;;1.30;;
34196;SDS011;36594;45.192;5.722;2023-03-23T11:16:34;1.80;;;1.67;;
34196;SDS011;36594;45.192;5.722;2023-03-23T11:19:26;2.52;;;1.67;;
34196;SDS011;36594;45.192;5.722;2023-03-23T11:22:24;1.77;;;1.52;;
34196;SDS011;36594;45.192;5.722;2023-03-23T11:25:14;1.60;;;1.50;;
34196;SDS011;36594;45.192;5.722;2023-03-23T11:28:03;1.85;;;1.75;;
34196;SDS011;36594;45.192;5.722;2023-03-23T11:30:52;1.80;;;1.70;;
34196;SDS011;36594;45.192;5.722;2023-03-23T11:33:53;1.60;;;1.50;;
34196;SDS011;36594;45.192;5.722;2023-03-23T11:36:57;1.67;;;1.57;;
34196;SDS011;36594;45.192;5.722;2023-03-23T11:39:55;1.70;;;1.60;;
34196;SDS011;36594;45.192;5.722;2023-03-23T11:42:57;2.80;;;2.00;;
34196;SDS011;36594;45.192;5.722;2023-03-23T11:46:02;1.92;;;1.70;;
34196;SDS011;36594;45.192;5.722;2023-03-23T11:48:53;1.72;;;1.62;;
34196;SDS011;36594;45.192;5.722;2023-03-23T11:51:56;2.12;;;1.92;;
34196;SDS011;36594;45.192;5.722;2023-03-23T11:54:50;2.08;;;1.80;;
34196;SDS011;36594;45.192;5.722;2023-03-23T11:57:39;2.25;;;2.00;;
34196;SDS011;36594;45.192;5.722;2023-03-23T12:00:28;2.05;;;1.82;;
34196;SDS011;36594;45.192;5.722;2023-03-23T12:06:26;1.95;;;1.80;;
34196;SDS011;36594;45.192;5.722;2023-03-23T12:09:23;1.98;;;1.87;;
34196;SDS011;36594;45.192;5.722;2023-03-23T12:18:19;2.60;;;2.08;;
34196;SDS011;36594;45.192;5.722;2023-03-23T12:24:21;2.10;;;2.00;;
34196;SDS011;36594;45.192;5.722;2023-03-23T12:40:16;1.87;;;1.77;;
34196;SDS011;36594;45.192;5.722;2023-03-23T12:43:23;2.45;;;2.25;;
34196;SDS011;36594;45.192;5.722;2023-03-23T12:46:17;2.20;;;2.10;;
34196;SDS011;36594;45.192;5.722;2023-03-23T12:49:13;2.25;;;2.02;;
34196;SDS011;36594;45.192;5.722;2023-03-23T12:52:22;2.98;;;2.15;;
34196;SDS011;36594;45.192;5.722;2023-03-23T12:55:22;2.05;;;1.95;;
34196;SDS011;36594;45.192;5.722;2023-03-23T12:58:32;1.98;;;1.87;;
34196;SDS011;36594;45.192;5.722;2023-03-23T13:01:24;2.30;;;2.20;;
34196;SDS011;36594;45.192;5.722;2023-03-23T13:04:21;2.17;;;2.00;;
34196;SDS011;36594;45.192;5.722;2023-03-23T13:07:20;3.05;;;2.77;;
34196;SDS011;36594;45.192;5.722;2023-03-23T13:10:14;2.80;;;2.30;;
34196;SDS011;36594;45.192;5.722;2023-03-23T13:13:01;2.33;;;2.10;;
34196;SDS011;36594;45.192;5.722;2023-03-23T13:15:56;2.03;;;1.93;;
34196;SDS011;36594;45.192;5.722;2023-03-23T13:19:02;2.30;;;2.10;;
34196;SDS011;36594;45.192;5.722;2023-03-23T13:22:01;2.12;;;1.92;;
34196;SDS011;36594;45.192;5.722;2023-03-23T13:25:01;2.27;;;2.05;;
34196;SDS011;36594;45.192;5.722;2023-03-23T13:27:58;2.40;;;2.20;;
34196;SDS011;36594;45.192;5.722;2023-03-23T13:34:20;1.98;;;1.87;;
34196;SDS011;36594;45.192;5.722;2023-03-23T13:37:19;2.20;;;2.10;;
34196;SDS011;36594;45.192;5.722;2023-03-23T13:43:09;2.12;;;2.00;;
34196;SDS011;36594;45.192;5.722;2023-03-23T13:52:01;2.10;;;2.00;;
34196;SDS011;36594;45.192;5.722;2023-03-23T13:58:25;2.08;;;1.98;;
34196;SDS011;36594;45.192;5.722;2023-03-23T14:01:15;2.35;;;2.08;;
34196;SDS011;36594;45.192;5.722;2023-03-23T14:04:06;2.20;;;2.02;;
34196;SDS011;36594;45.192;5.722;2023-03-23T14:07:08;2.12;;;2.00;;
34196;SDS011;36594;45.192;5.722;2023-03-23T14:09:52;2.50;;;1.95;;
34196;SDS011;36594;45.192;5.722;2023-03-23T14:12:42;2.10;;;1.92;;
34196;SDS011;36594;45.192;5.722;2023-03-23T14:15:40;2.02;;;1.82;;
34196;SDS011;36594;45.192;5.722;2023-03-23T14:18:30;2.47;;;2.00;;
34196;SDS011;36594;45.192;5.722;2023-03-23T14:21:22;2.02;;;1.90;;
34196;SDS011;36594;45.192;5.722;2023-03-23T14:24:28;2.17;;;2.08;;
34196;SDS011;36594;45.192;5.722;2023-03-23T14:27:18;2.47;;;2.20;;
34196;SDS011;36594;45.192;5.722;2023-03-23T14:30:12;2.12;;;2.02;;
34196;SDS011;36594;45.192;5.722;2023-03-23T14:33:04;2.20;;;2.00;;
34196;SDS011;36594;45.192;5.722;2023-03-23T14:35:57;2.40;;;2.20;;
34196;SDS011;36594;45.192;5.722;2023-03-23T14:38:46;2.15;;;2.02;;
34196;SDS011;36594;45.192;5.722;2023-03-23T14:41:35;2.00;;;1.80;;
34196;SDS011;36594;45.192;5.722;2023-03-23T14:44:27;2.30;;;2.10;;
34196;SDS011;36594;45.192;5.722;2023-03-23T14:47:29;2.30;;;2.10;;
34196;SDS011;36594;45.192;5.722;2023-03-23T14:50:40;1.67;;;1.57;;
34196;SDS011;36594;45.192;5.722;2023-03-23T14:53:26;1.90;;;1.80;;
34196;SDS011;36594;45.192;5.722;2023-03-23T14:56:22;1.95;;;1.85;;
34196;SDS011;36594;45.192;5.722;2023-03-23T14:59:12;2.30;;;2.10;;
34196;SDS011;36594;45.192;5.722;2023-03-23T15:02:01;2.30;;;2.10;;
34196;SDS011;36594;45.192;5.722;2023-03-23T15:04:52;2.02;;;1.82;;
34196;SDS011;36594;45.192;5.722;2023-03-23T15:07:50;2.20;;;2.00;;
34196;SDS011;36594;45.192;5.722;2023-03-23T15:10:33;2.30;;;2.10;;
34196;SDS011;36594;45.192;5.722;2023-03-23T15:13:22;1.80;;;1.70;;
34196;SDS011;36594;45.192;5.722;2023-03-23T15:16:12;2.30;;;2.00;;
34196;SDS011;36594;45.192;5.722;2023-03-23T15:19:03;2.05;;;1.90;;
34196;SDS011;36594;45.192;5.722;2023-03-23T15:21:54;1.70;;;1.60;;
34196;SDS011;36594;45.192;5.722;2023-03-23T15:24:45;1.70;;;1.60;;
34196;SDS011;36594;45.192;5.722;2023-03-23T15:27:39;1.92;;;1.80;;
34196;SDS011;36594;45.192;5.722;2023-03-23T15:30:31;1.80;;;1.70;;
34196;SDS011;36594;45.192;5.722;2023-03-23T15:33:20;1.77;;;1.67;;
34196;SDS011;36594;45.192;5.722;2023-03-23T15:36:20;1.80;;;1.70;;
34196;SDS011;36594;45.192;5.722;2023-03-23T15:39:05;2.02;;;1.82;;
34196;SDS011;36594;45.192;5.722;2023-03-23T15:41:55;2.10;;;1.90;;
34196;SDS011;36594;45.192;5.722;2023-03-23T15:44:53;1.72;;;1.62;;
34196;SDS011;36594;45.192;5.722;2023-03-23T15:47:43;1.80;;;1.70;;
34196;SDS011;36594;45.192;5.722;2023-03-23T15:53:32;2.08;;;1.98;;
34196;SDS011;36594;45.192;5.722;2023-03-23T15:56:24;3.08;;;2.00;;
34196;SDS011;36594;45.192;5.722;2023-03-23T15:59:13;2.10;;;1.90;;
34196;SDS011;36594;45.192;5.722;2023-03-23T16:02:01;1.80;;;1.70;;
34196;SDS011;36594;45.192;5.722;2023-03-23T16:04:50;2.12;;;1.92;;
34196;SDS011;36594;45.192;5.722;2023-03-23T16:07:39;2.05;;;1.95;;
34196;SDS011;36594;45.192;5.722;2023-03-23T16:10:27;1.82;;;1.72;;
34196;SDS011;36594;45.192;5.722;2023-03-23T16:13:16;1.70;;;1.60;;
34196;SDS011;36594;45.192;5.722;2023-03-23T16:16:05;1.80;;;1.70;;
34196;SDS011;36594;45.192;5.722;2023-03-23T16:18:56;1.85;;;1.75;;
34196;SDS011;36594;45.192;5.722;2023-03-23T16:21:44;3.35;;;2.02;;
34196;SDS011;36594;45.192;5.722;2023-03-23T16:24:33;1.92;;;1.82;;
34196;SDS011;36594;45.192;5.722;2023-03-23T16:27:21;1.90;;;1.80;;
34196;SDS011;36594;45.192;5.722;2023-03-23T16:30:17;1.52;;;1.50;;
34196;SDS011;36594;45.192;5.722;2023-03-23T16:33:10;1.82;;;1.67;;
34196;SDS011;36594;45.192;5.722;2023-03-23T16:35:59;1.80;;;1.70;;
34196;SDS011;36594;45.192;5.722;2023-03-23T16:38:48;1.95;;;1.85;;
34196;SDS011;36594;45.192;5.722;2023-03-23T16:41:36;1.90;;;1.80;;
34196;SDS011;36594;45.192;5.722;2023-03-23T16:44:26;1.90;;;1.80;;
34196;SDS011;36594;45.192;5.722;2023-03-23T16:47:15;1.73;;;1.63;;
34196;SDS011;36594;45.192;5.722;2023-03-23T16:50:06;1.80;;;1.70;;
34196;SDS011;36594;45.192;5.722;2023-03-23T16:53:00;1.70;;;1.60;;
34196;SDS011;36594;45.192;5.722;2023-03-23T16:55:50;1.77;;;1.67;;
34196;SDS011;36594;45.192;5.722;2023-03-23T16:58:39;1.87;;;1.77;;
34196;SDS011;36594;45.192;5.722;2023-03-23T17:01:30;1.60;;;1.50;;
34196;SDS011;36594;45.192;5.722;2023-03-23T17:04:19;2.17;;;1.75;;
34196;SDS011;36594;45.192;5.722;2023-03-23T17:07:07;1.65;;;1.55;;
34196;SDS011;36594;45.192;5.722;2023-03-23T17:09:56;1.70;;;1.50;;
34196;SDS011;36594;45.192;5.722;2023-03-23T17:12:45;1.50;;;1.40;;
34196;SDS011;36594;45.192;5.722;2023-03-23T17:15:44;1.80;;;1.70;;
34196;SDS011;36594;45.192;5.722;2023-03-23T17:18:28;1.67;;;1.57;;
34196;SDS011;36594;45.192;5.722;2023-03-23T17:21:16;1.90;;;1.80;;
34196;SDS011;36594;45.192;5.722;2023-03-23T17:24:07;1.70;;;1.60;;
34196;SDS011;36594;45.192;5.722;2023-03-23T17:26:56;1.80;;;1.70;;
34196;SDS011;36594;45.192;5.722;2023-03-23T17:29:44;1.80;;;1.70;;
34196;SDS011;36594;45.192;5.722;2023-03-23T17:32:33;2.10;;;1.90;;
34196;SDS011;36594;45.192;5.722;2023-03-23T17:35:22;1.97;;;1.80;;
34196;SDS011;36594;45.192;5.722;2023-03-23T17:38:11;1.92;;;1.82;;
34196;SDS011;36594;45.192;5.722;2023-03-23T17:41:00;1.80;;;1.70;;
34196;SDS011;36594;45.192;5.722;2023-03-23T17:43:51;2.02;;;1.85;;
34196;SDS011;36594;45.192;5.722;2023-03-23T17:46:40;1.82;;;1.70;;
34196;SDS011;36594;45.192;5.722;2023-03-23T17:49:28;1.90;;;1.80;;
34196;SDS011;36594;45.192;5.722;2023-03-23T17:52:17;1.82;;;1.72;;
34196;SDS011;36594;45.192;5.722;2023-03-23T17:55:06;1.57;;;1.47;;
34196;SDS011;36594;45.192;5.722;2023-03-23T17:57:54;1.65;;;1.55;;
34196;SDS011;36594;45.192;5.722;2023-03-23T18:00:43;1.90;;;1.80;;
34196;SDS011;36594;45.192;5.722;2023-03-23T18:03:31;1.70;;;1.60;;
34196;SDS011;36594;45.192;5.722;2023-03-23T18:06:19;1.42;;;1.35;;
34196;SDS011;36594;45.192;5.722;2023-03-23T18:09:08;1.57;;;1.47;;
34196;SDS011;36594;45.192;5.722;2023-03-23T18:11:56;2.08;;;1.65;;
34196;SDS011;36594;45.192;5.722;2023-03-23T18:14:45;1.80;;;1.65;;
34196;SDS011;36594;45.192;5.722;2023-03-23T18:17:33;1.52;;;1.42;;
34196;SDS011;36594;45.192;5.722;2023-03-23T18:20:22;1.82;;;1.70;;
34196;SDS011;36594;45.192;5.722;2023-03-23T18:23:11;1.50;;;1.40;;